Observation data for Clarendon on 12/13/2019      Previous  Date       Current Mesonet Observations  Soil Data  Daily Summary Page  Observations in Plain Language
KCES 130600Z 27001KT M01/M03 A2996 RMK A01 T10091032  RH  085%=      5-min Rain = 0
KCES 130605Z 31001KT M01/M04 A2996 RMK A01 T10101036  RH  083%=      5-min Rain = 0
KCES 130610Z 32002KT M01/M04 A2996 RMK A01 T10141040  RH  083%=      5-min Rain = 0
KCES 130615Z 31002KT M02/M05 A2995 RMK A01 T10211046  RH  083%=      5-min Rain = 0
KCES 130620Z 28002KT M02/M04 A2995 RMK A01 T10201040  RH  087%=      5-min Rain = 0
KCES 130625Z 27002KT M01/M03 A2995 RMK A01 T10131033  RH  087%=      5-min Rain = 0
KCES 130630Z 28001KT M00/M03 A2995 RMK A01 T10031026  RH  085%=      5-min Rain = 0
KCES 130635Z 27001KT 00/M02 A2995 RMK A01 T00041023  RH  083%=      5-min Rain = 0
KCES 130640Z 28000KT 01/M03 A2995 RMK A01 T00051027  RH  080%=      5-min Rain = 0
KCES 130645Z 34001KT 01/M03 A2995 RMK A01 T00051027  RH  079%=      5-min Rain = 0
KCES 130650Z 35001KT 00/M03 A2995 RMK A01 T00041030  RH  078%=      5-min Rain = 0
KCES 130655Z 00000KT M01/M04 A2995 RMK A01 T10051038  RH  079%=      5-min Rain = 0
KCES 130700Z 25001KT M01/M04 A2995 RMK A01 T10081036  RH  082%=      5-min Rain = 0
KCES 130705Z 26003KT M01/M04 A2995 RMK A01 T10121038  RH  083%=      5-min Rain = 0
KCES 130710Z 29004KT M01/M03 A2995 RMK A01 T10101032  RH  085%=      5-min Rain = 0
KCES 130715Z 29005KT M01/M03 A2995 RMK A01 T10061031  RH  084%=      5-min Rain = 0
KCES 130720Z 29005KT M01/M03 A2995 RMK A01 T10061031  RH  083%=      5-min Rain = 0
KCES 130725Z 29004KT M00/M03 A2995 RMK A01 T10041030  RH  084%=      5-min Rain = 0
KCES 130730Z 28004KT M00/M03 A2995 RMK A01 T10031029  RH  083%=      5-min Rain = 0
KCES 130735Z 28004KT 00/03 A2995 RMK A01 T00000-28  RH  082%=      5-min Rain = 0
KCES 130740Z 28004KT 00/M03 A2995 RMK A01 T00011030  RH  081%=      5-min Rain = 0
KCES 130745Z 29005KT 00/03 A2995 RMK A01 T00-00-31  RH  081%=      5-min Rain = 0
KCES 130750Z 29004KT M00/M03 A2995 RMK A01 T10011031  RH  081%=      5-min Rain = 0
KCES 130755Z 31003KT M00/M03 A2995 RMK A01 T10011031  RH  081%=      5-min Rain = 0
KCES 130800Z 32002KT M00/M03 A2994 RMK A01 T10011030  RH  081%=      5-min Rain = 0
KCES 130805Z 30003KT 00/M03 A2994 RMK A01 T00021026  RH  082%=      5-min Rain = 0
KCES 130810Z 26001KT 00/M03 A2993 RMK A01 T00041027  RH  080%=      5-min Rain = 0
KCES 130815Z 30002KT 00/M03 A2993 RMK A01 T00031029  RH  080%=      5-min Rain = 0
KCES 130820Z 32001KT 01/M03 A2993 RMK A01 T00051028  RH  080%=      5-min Rain = 0
KCES 130825Z 25002KT 01/M03 A2993 RMK A01 T00051031  RH  077%=      5-min Rain = 0
KCES 130830Z 27002KT 00/M03 A2993 RMK A01 T00021032  RH  078%=      5-min Rain = 0
KCES 130835Z 27002KT 00/M03 A2993 RMK A01 T00031030  RH  079%=      5-min Rain = 0
KCES 130840Z 29002KT 01/M03 A2993 RMK A01 T00091026  RH  078%=      5-min Rain = 0
KCES 130845Z 29001KT 01/M03 A2992 RMK A01 T00101028  RH  076%=      5-min Rain = 0
KCES 130850Z 28002KT 01/M03 A2992 RMK A01 T00081030  RH  076%=      5-min Rain = 0
KCES 130855Z 29003KT 01/M03 A2992 RMK A01 T00081029  RH  077%=      5-min Rain = 0
KCES 130900Z 31002KT 01/M03 A2992 RMK A01 T00091029  RH  076%=      5-min Rain = 0
KCES 130905Z 31003KT 01/M03 A2993 RMK A01 T00081031  RH  076%=      5-min Rain = 0
KCES 130910Z 30004KT 01/M03 A2992 RMK A01 T00061031  RH  076%=      5-min Rain = 0
KCES 130915Z 30004KT 00/M03 A2992 RMK A01 T00021033  RH  077%=      5-min Rain = 0
KCES 130920Z 31004KT 00/M03 A2992 RMK A01 T00011032  RH  079%=      5-min Rain = 0
KCES 130925Z 29003KT 00/M03 A2992 RMK A01 T00021030  RH  079%=      5-min Rain = 0
KCES 130930Z 31003KT 00/M03 A2992 RMK A01 T00011031  RH  079%=      5-min Rain = 0
KCES 130935Z 30004KT 00/M03 A2992 RMK A01 T00031029  RH  080%=      5-min Rain = 0
KCES 130940Z 28004KT 00/M03 A2992 RMK A01 T00031031  RH  079%=      5-min Rain = 0
KCES 130945Z 28004KT M00/M03 A2991 RMK A01 T10011032  RH  080%=      5-min Rain = 0
KCES 130950Z 29004KT 00/03 A2991 RMK A01 T00-00-31  RH  080%=      5-min Rain = 0
KCES 130955Z 28004KT 00/03 A2991 RMK A01 T00000-31  RH  080%=      5-min Rain = 0
KCES 131000Z 29004KT 00/03 A2992 RMK A01 T00-00-32  RH  080%=      5-min Rain = 0
KCES 131005Z 29004KT M00/M03 A2992 RMK A01 T10011031  RH  080%=      5-min Rain = 0
KCES 131010Z 27003KT 00/03 A2992 RMK A01 T00000-30  RH  081%=      5-min Rain = 0
KCES 131015Z 27003KT 00/M03 A2991 RMK A01 T00021030  RH  080%=      5-min Rain = 0
KCES 131020Z 29003KT 00/M03 A2991 RMK A01 T00031030  RH  079%=      5-min Rain = 0
KCES 131025Z 28003KT 00/M03 A2991 RMK A01 T00031030  RH  079%=      5-min Rain = 0
KCES 131030Z 29003KT 00/M03 A2992 RMK A01 T00021030  RH  079%=      5-min Rain = 0
KCES 131035Z 29003KT 00/M03 A2992 RMK A01 T00011031  RH  080%=      5-min Rain = 0
KCES 131040Z 29002KT 00/03 A2991 RMK A01 T00000-31  RH  080%=      5-min Rain = 0
KCES 131045Z 29003KT 00/03 A2991 RMK A01 T00000-30  RH  080%=      5-min Rain = 0
KCES 131050Z 30003KT 00/M03 A2991 RMK A01 T00011031  RH  080%=      5-min Rain = 0
KCES 131055Z 30002KT 00/03 A2991 RMK A01 T00000-32  RH  080%=      5-min Rain = 0
KCES 131100Z 28002KT M00/M03 A2991 RMK A01 T10011032  RH  080%=      5-min Rain = 0
KCES 131105Z 28003KT M00/M03 A2991 RMK A01 T10011032  RH  080%=      5-min Rain = 0
KCES 131110Z 30002KT M00/M03 A2991 RMK A01 T10011033  RH  080%=      5-min Rain = 0
KCES 131115Z 32002KT M00/M03 A2991 RMK A01 T10021033  RH  080%=      5-min Rain = 0
KCES 131120Z 35002KT M00/M03 A299 RMK A01 T10021032  RH  080%=      5-min Rain = 0
KCES 131125Z 32002KT M00/M03 A299 RMK A01 T10011033  RH  080%=      5-min Rain = 0
KCES 131130Z 31003KT M00/M03 A299 RMK A01 T10021033  RH  080%=      5-min Rain = 0
KCES 131135Z 30002KT 00/03 A299 RMK A01 T00-00-32  RH  080%=      5-min Rain = 0
KCES 131140Z 29003KT M00/M03 A2991 RMK A01 T10011034  RH  079%=      5-min Rain = 0
KCES 131145Z 29003KT M00/M04 A2991 RMK A01 T10031035  RH  080%=      5-min Rain = 0
KCES 131150Z 31003KT M01/M04 A2991 RMK A01 T10051035  RH  080%=      5-min Rain = 0
KCES 131155Z 28002KT M01/M03 A2991 RMK A01 T10051034  RH  081%=      5-min Rain = 0
KCES 131200Z 28002KT M01/M03 A2991 RMK A01 T10051034  RH  081%=      5-min Rain = 0
KCES 131205Z 27002KT M01/M03 A2991 RMK A01 T10061034  RH  081%=      5-min Rain = 0
KCES 131210Z 26001KT M01/M03 A2991 RMK A01 T10061034  RH  082%=      5-min Rain = 0
KCES 131215Z 26002KT M01/M03 A2991 RMK A01 T10051033  RH  082%=      5-min Rain = 0
KCES 131220Z 24002KT M00/M03 A2991 RMK A01 T10031033  RH  081%=      5-min Rain = 0
KCES 131225Z 24003KT 00/03 A2991 RMK A01 T00-00-32  RH  079%=      5-min Rain = 0
KCES 131230Z 23003KT 00/M03 A2991 RMK A01 T00021032  RH  078%=      5-min Rain = 0
KCES 131235Z 24003KT 01/M03 A299 RMK A01 T00071030  RH  077%=      5-min Rain = 0
KCES 131240Z 24003KT 01/M03 A299 RMK A01 T00081032  RH  075%=      5-min Rain = 0
KCES 131245Z 25003KT 01/M03 A2989 RMK A01 T00071034  RH  075%=      5-min Rain = 0
KCES 131250Z 27004KT 00/M04 A2989 RMK A01 T00041036  RH  075%=      5-min Rain = 0
KCES 131255Z 27005KT 01/M03 A2989 RMK A01 T00051032  RH  077%=      5-min Rain = 0
KCES 131300Z 26002KT 01/M03 A2989 RMK A01 T00121031  RH  074%=      5-min Rain = 0
KCES 131305Z 26003KT 01/M03 A299 RMK A01 T00111033  RH  073%=      5-min Rain = 0
KCES 131310Z 27003KT 01/M03 A299 RMK A01 T00131030  RH  073%=      5-min Rain = 0
KCES 131315Z 27003KT 02/M03 A299 RMK A01 T00161030  RH  072%=      5-min Rain = 0
KCES 131320Z 27003KT 02/M03 A299 RMK A01 T00161029  RH  073%=      5-min Rain = 0
KCES 131325Z 28003KT 02/M03 A299 RMK A01 T00211029  RH  070%=      5-min Rain = 0
KCES 131330Z 28003KT 02/M03 A299 RMK A01 T00221028  RH  070%=      5-min Rain = 0
KCES 131335Z 28003KT 02/M04 A299 RMK A01 T00181035  RH  068%=      5-min Rain = 0
KCES 131340Z 29003KT 01/M04 A299 RMK A01 T00111035  RH  072%=      5-min Rain = 0
KCES 131345Z 29002KT 01/M03 A299 RMK A01 T00101034  RH  073%=      5-min Rain = 0
KCES 131350Z 30001KT 01/M03 A299 RMK A01 T00081034  RH  074%=      5-min Rain = 0
KCES 131355Z 32001KT 01/M04 A299 RMK A01 T00061035  RH  075%=      5-min Rain = 0
KCES 131400Z 27001KT 00/M04 A299 RMK A01 T00041037  RH  074%=      5-min Rain = 0
KCES 131405Z 31002KT M00/M04 A299 RMK A01 T10031043  RH  074%=      5-min Rain = 0
KCES 131410Z 29002KT M01/M05 A299 RMK A01 T10091046  RH  076%=      5-min Rain = 0
KCES 131415Z 25002KT M01/M04 A299 RMK A01 T10121042  RH  080%=      5-min Rain = 0
KCES 131420Z 24003KT M01/M04 A299 RMK A01 T10071036  RH  082%=      5-min Rain = 0
KCES 131425Z 25003KT 00/M03 A299 RMK A01 T00021028  RH  081%=      5-min Rain = 0
KCES 131430Z 27005G11KT 01/M03 A299 RMK A01 T00141025  RH  076%=      5-min Rain = 0
KCES 131435Z 29009KT 03/M02 A299 RMK A01 T00271021  RH  071%=      5-min Rain = 0
KCES 131440Z 29005KT 04/M02 A299 RMK A01 T00371018  RH  068%=      5-min Rain = 0
KCES 131445Z 30003KT 04/M02 A2991 RMK A01 T00391016  RH  068%=      5-min Rain = 0
KCES 131450Z 30003KT 04/M02 A299 RMK A01 T00411015  RH  068%=      5-min Rain = 0
KCES 131455Z 27002KT 04/M02 A299 RMK A01 T00431015  RH  066%=      5-min Rain = 0
KCES 131500Z 26003KT 05/M01 A2991 RMK A01 T00471012  RH  066%=      5-min Rain = 0
KCES 131505Z 25004KT 05/M01 A2991 RMK A01 T00511012  RH  065%=      5-min Rain = 0
KCES 131510Z 26005KT 06/M01 A2991 RMK A01 T00561011  RH  063%=      5-min Rain = 0
KCES 131515Z 28004KT 06/M01 A2991 RMK A01 T00611011  RH  060%=      5-min Rain = 0
KCES 131520Z 28005KT 07/M01 A2991 RMK A01 T00661011  RH  058%=      5-min Rain = 0
KCES 131525Z 27005KT 07/M01 A2991 RMK A01 T00701011  RH  057%=      5-min Rain = 0
KCES 131530Z 28005KT 07/M01 A2991 RMK A01 T00721010  RH  056%=      5-min Rain = 0
KCES 131535Z 29006KT 07/M01 A2991 RMK A01 T00731012  RH  055%=      5-min Rain = 0
KCES 131540Z 31006KT 07/M01 A2991 RMK A01 T00741009  RH  056%=      5-min Rain = 0
KCES 131545Z 30005KT 08/M01 A299 RMK A01 T00781008  RH  055%=      5-min Rain = 0
KCES 131550Z 31007KT 08/M01 A299 RMK A01 T00841007  RH  053%=      5-min Rain = 0
KCES 131555Z 31008KT 09/M01 A2991 RMK A01 T00881005  RH  053%=      5-min Rain = 0
KCES 131600Z 31008KT 09/M00 A2991 RMK A01 T00911004  RH  052%=      5-min Rain = 0
KCES 131605Z 30008KT 10/M00 A299 RMK A01 T00951003  RH  051%=      5-min Rain = 0
KCES 131610Z 30008KT 10/00 A299 RMK A01 T010100-0  RH  050%=      5-min Rain = 0
KCES 131615Z 30008KT 11/00 A299 RMK A01 T01080001  RH  048%=      5-min Rain = 0
KCES 131620Z 31007KT 12/00 A299 RMK A01 T01150000  RH  045%=      5-min Rain = 0
KCES 131625Z 32011KT 12/M01 A299 RMK A01 T01191005  RH  043%=      5-min Rain = 0
KCES 131630Z 32010KT 12/M01 A299 RMK A01 T01211006  RH  042%=      5-min Rain = 0
KCES 131635Z 31012KT 13/M01 A299 RMK A01 T01251011  RH  040%=      5-min Rain = 0
KCES 131640Z 32011KT 13/M01 A299 RMK A01 T01291010  RH  039%=      5-min Rain = 0
KCES 131645Z 32010KT 13/M01 A299 RMK A01 T01301011  RH  038%=      5-min Rain = 0
KCES 131650Z 31011KT 13/M01 A299 RMK A01 T01341013  RH  037%=      5-min Rain = 0
KCES 131655Z 32012KT 14/M02 A299 RMK A01 T01361015  RH  036%=      5-min Rain = 0
KCES 131700Z 32011KT 14/M02 A299 RMK A01 T01371015  RH  035%=      5-min Rain = 0
KCES 131705Z 32012KT 14/M02 A299 RMK A01 T01391016  RH  035%=      5-min Rain = 0
KCES 131710Z 31011G17KT 14/M02 A2989 RMK A01 T01401018  RH  034%=      5-min Rain = 0
KCES 131715Z 32012KT 14/M02 A2989 RMK A01 T01441018  RH  033%=      5-min Rain = 0
KCES 131720Z 31012KT 15/M02 A2989 RMK A01 T01461020  RH  032%=      5-min Rain = 0
KCES 131725Z 32013KT 15/M02 A2989 RMK A01 T01471020  RH  032%=      5-min Rain = 0
KCES 131730Z 32011KT 15/M02 A2988 RMK A01 T01491019  RH  032%=      5-min Rain = 0
KCES 131735Z 32012KT 15/M02 A2988 RMK A01 T01511021  RH  031%=      5-min Rain = 0
KCES 131740Z 33012KT 15/M02 A2988 RMK A01 T01541021  RH  030%=      5-min Rain = 0
KCES 131745Z 32012G17KT 16/M02 A2988 RMK A01 T01581019  RH  030%=      5-min Rain = 0
KCES 131750Z 33013KT 16/M02 A2988 RMK A01 T01581022  RH  029%=      5-min Rain = 0
KCES 131755Z 34013KT 16/M02 A2988 RMK A01 T01581022  RH  029%=      5-min Rain = 0
KCES 131800Z 33012KT 16/M02 A2988 RMK A01 T01551022  RH  030%=      5-min Rain = 0
KCES 131805Z 33011KT 16/M02 A2987 RMK A01 T01571021  RH  030%=      5-min Rain = 0
KCES 131810Z 34010KT 16/M02 A2987 RMK A01 T01561022  RH  030%=      5-min Rain = 0
KCES 131815Z 33010KT 16/M02 A2986 RMK A01 T01551022  RH  030%=      5-min Rain = 0
KCES 131820Z 33009KT 16/M02 A2986 RMK A01 T01581022  RH  029%=      5-min Rain = 0
KCES 131825Z 33009KT 16/M02 A2986 RMK A01 T01581022  RH  029%=      5-min Rain = 0
KCES 131830Z 33009KT 16/M02 A2986 RMK A01 T01591020  RH  030%=      5-min Rain = 0
KCES 131835Z 34010G18KT 16/M02 A2986 RMK A01 T01571022  RH  029%=      5-min Rain = 0
KCES 131840Z 34012KT 16/M02 A2986 RMK A01 T01581021  RH  029%=      5-min Rain = 0
KCES 131845Z 33011KT 16/M02 A2986 RMK A01 T01581023  RH  029%=      5-min Rain = 0
KCES 131850Z 34012KT 16/M03 A2985 RMK A01 T01591026  RH  028%=      5-min Rain = 0
KCES 131855Z 34011KT 16/M03 A2985 RMK A01 T01581027  RH  028%=      5-min Rain = 0
KCES 131900Z 35010KT 16/M03 A2985 RMK A01 T01591029  RH  027%=      5-min Rain = 0
KCES 131905Z 34009KT 16/M03 A2985 RMK A01 T01621028  RH  027%=      5-min Rain = 0
KCES 131910Z 33011KT 16/M03 A2985 RMK A01 T01631033  RH  026%=      5-min Rain = 0
KCES 131915Z 33009KT 16/M03 A2985 RMK A01 T01641033  RH  026%=      5-min Rain = 0
KCES 131920Z 33009KT 17/M04 A2985 RMK A01 T01661036  RH  025%=      5-min Rain = 0
KCES 131925Z 33011KT 17/M04 A2984 RMK A01 T01661039  RH  024%=      5-min Rain = 0
KCES 131930Z 32010KT 16/M04 A2985 RMK A01 T01641040  RH  025%=      5-min Rain = 0
KCES 131935Z 31010KT 17/M04 A2985 RMK A01 T01651039  RH  024%=      5-min Rain = 0
KCES 131940Z 33009KT 17/M04 A2985 RMK A01 T01661037  RH  025%=      5-min Rain = 0
KCES 131945Z 33009KT 17/M04 A2985 RMK A01 T01681037  RH  025%=      5-min Rain = 0
KCES 131950Z 32010KT 17/M04 A2984 RMK A01 T01681037  RH  024%=      5-min Rain = 0
KCES 131955Z 33009KT 17/M04 A2984 RMK A01 T01701037  RH  024%=      5-min Rain = 0
KCES 132000Z 33010KT 17/M04 A2984 RMK A01 T01711040  RH  023%=      5-min Rain = 0
KCES 132005Z 34009KT 17/M04 A2984 RMK A01 T01701039  RH  024%=      5-min Rain = 0
KCES 132010Z 35009KT 17/M04 A2984 RMK A01 T01701039  RH  024%=      5-min Rain = 0
KCES 132015Z 35009KT 17/M04 A2984 RMK A01 T01711039  RH  024%=      5-min Rain = 0
KCES 132020Z 32010KT 17/M04 A2984 RMK A01 T01721039  RH  023%=      5-min Rain = 0
KCES 132025Z 34009KT 17/M04 A2983 RMK A01 T01721039  RH  023%=      5-min Rain = 0
KCES 132030Z 33010KT 17/M04 A2984 RMK A01 T01741037  RH  023%=      5-min Rain = 0
KCES 132035Z 32009KT 17/M04 A2984 RMK A01 T01731038  RH  023%=      5-min Rain = 0
KCES 132040Z 33009KT 18/M04 A2983 RMK A01 T01761036  RH  023%=      5-min Rain = 0
KCES 132045Z 32011KT 18/M04 A2984 RMK A01 T01751037  RH  023%=      5-min Rain = 0
KCES 132050Z 32009KT 18/M03 A2984 RMK A01 T01751034  RH  024%=      5-min Rain = 0
KCES 132055Z 31009KT 18/M04 A2984 RMK A01 T01761035  RH  024%=      5-min Rain = 0
KCES 132100Z 32009KT 18/M03 A2984 RMK A01 T01761033  RH  024%=      5-min Rain = 0
KCES 132105Z 33009KT 18/M03 A2984 RMK A01 T01761032  RH  024%=      5-min Rain = 0
KCES 132110Z 33009KT 18/M03 A2984 RMK A01 T01761032  RH  024%=      5-min Rain = 0
KCES 132115Z 34008G13KT 18/M03 A2984 RMK A01 T01771031  RH  024%=      5-min Rain = 0
KCES 132120Z 34011KT 18/M03 A2984 RMK A01 T01771033  RH  024%=      5-min Rain = 0
KCES 132125Z 34010KT 18/M03 A2984 RMK A01 T01781031  RH  024%=      5-min Rain = 0
KCES 132130Z 35009KT 18/M03 A2984 RMK A01 T01781031  RH  024%=      5-min Rain = 0
KCES 132135Z 34010KT 18/M03 A2984 RMK A01 T01781032  RH  024%=      5-min Rain = 0
KCES 132140Z 34010KT 18/M03 A2984 RMK A01 T01771033  RH  024%=      5-min Rain = 0
KCES 132145Z 34009KT 18/M03 A2983 RMK A01 T01771033  RH  024%=      5-min Rain = 0
KCES 132150Z 33009KT 18/M03 A2984 RMK A01 T01771034  RH  024%=      5-min Rain = 0
KCES 132155Z 34008KT 18/M03 A2984 RMK A01 T01771031  RH  024%=      5-min Rain = 0
KCES 132200Z 35009KT 18/M03 A2983 RMK A01 T01761031  RH  024%=      5-min Rain = 0
KCES 132205Z 34008KT 18/M03 A2983 RMK A01 T01751032  RH  024%=      5-min Rain = 0
KCES 132210Z 35007KT 18/M03 A2984 RMK A01 T01761032  RH  024%=      5-min Rain = 0
KCES 132215Z 34008KT 18/M03 A2984 RMK A01 T01761032  RH  024%=      5-min Rain = 0
KCES 132220Z 34007KT 18/M03 A2984 RMK A01 T01751033  RH  024%=      5-min Rain = 0
KCES 132225Z 34006KT 17/M03 A2984 RMK A01 T01741033  RH  024%=      5-min Rain = 0
KCES 132230Z 34005KT 17/M03 A2984 RMK A01 T01741033  RH  024%=      5-min Rain = 0
KCES 132235Z 33005KT 17/M03 A2984 RMK A01 T01731033  RH  024%=      5-min Rain = 0
KCES 132240Z 34005KT 17/M03 A2985 RMK A01 T01721031  RH  025%=      5-min Rain = 0
KCES 132245Z 34005KT 17/M03 A2985 RMK A01 T01701031  RH  025%=      5-min Rain = 0
KCES 132250Z 34005KT 17/M03 A2986 RMK A01 T01671031  RH  026%=      5-min Rain = 0
KCES 132255Z 33005KT 16/M03 A2986 RMK A01 T01631032  RH  026%=      5-min Rain = 0
KCES 132300Z 33005KT 16/M03 A2986 RMK A01 T01591033  RH  027%=      5-min Rain = 0
KCES 132305Z 33005KT 16/M03 A2985 RMK A01 T01551034  RH  027%=      5-min Rain = 0
KCES 132310Z 33006KT 15/M04 A2985 RMK A01 T01501035  RH  028%=      5-min Rain = 0
KCES 132315Z 35006KT 14/M04 A2985 RMK A01 T01431036  RH  029%=      5-min Rain = 0
KCES 132320Z 00005KT 13/M04 A2985 RMK A01 T01341036  RH  031%=      5-min Rain = 0
KCES 132325Z 00006KT 13/M04 A2985 RMK A01 T01291038  RH  031%=      5-min Rain = 0
KCES 132330Z 00005KT 12/M04 A2985 RMK A01 T01241039  RH  032%=      5-min Rain = 0
KCES 132335Z 01004KT 12/M04 A2985 RMK A01 T01201039  RH  033%=      5-min Rain = 0
KCES 132340Z 01004KT 12/M04 A2986 RMK A01 T01181039  RH  033%=      5-min Rain = 0
KCES 132345Z 01003KT 11/M04 A2986 RMK A01 T01131040  RH  034%=      5-min Rain = 0
KCES 132350Z 01001KT 11/M04 A2986 RMK A01 T01061039  RH  036%=      5-min Rain = 0
KCES 132355Z 07000KT 10/M04 A2986 RMK A01 T00981041  RH  038%=      5-min Rain = 0
KCES 140000Z 01000KT 09/M04 A2987 RMK A01 T00921040  RH  039%=      5-min Rain = 0
KCES 140005Z 04001KT 09/M04 A2987 RMK A01 T00931040  RH  039%=      5-min Rain = 0
KCES 140010Z 04001KT 09/M04 A2986 RMK A01 T00941039  RH  039%=      5-min Rain = 0
KCES 140015Z 03002KT 09/M04 A2986 RMK A01 T00891042  RH  040%=      5-min Rain = 0
KCES 140020Z 02002KT 08/M04 A2987 RMK A01 T00761044  RH  042%=      5-min Rain = 0
KCES 140025Z 02002KT 06/M04 A2987 RMK A01 T00601042  RH  048%=      5-min Rain = 0
KCES 140030Z 04003KT 06/M04 A2987 RMK A01 T00611036  RH  050%=      5-min Rain = 0
KCES 140035Z 04004KT 07/M04 A2986 RMK A01 T00741038  RH  045%=      5-min Rain = 0
KCES 140040Z 04005KT 07/M04 A2986 RMK A01 T00701039  RH  046%=      5-min Rain = 0
KCES 140045Z 04004KT 06/M04 A2986 RMK A01 T00641039  RH  048%=      5-min Rain = 0
KCES 140050Z 04000KT 06/M04 A2986 RMK A01 T00581039  RH  050%=      5-min Rain = 0
KCES 140055Z 02001KT 06/M04 A2986 RMK A01 T00601035  RH  050%=      5-min Rain = 0
KCES 140100Z 02002KT 06/M04 A2986 RMK A01 T00621039  RH  049%=      5-min Rain = 0
KCES 140105Z 03002KT 05/M04 A2986 RMK A01 T00541041  RH  051%=      5-min Rain = 0
KCES 140110Z 04001KT 04/M04 A2987 RMK A01 T00401040  RH  056%=      5-min Rain = 0
KCES 140115Z 05001KT 04/M04 A2988 RMK A01 T00421035  RH  057%=      5-min Rain = 0
KCES 140120Z 04002KT 06/M04 A2988 RMK A01 T00581036  RH  051%=      5-min Rain = 0
KCES 140125Z 04001KT 05/M04 A2989 RMK A01 T00451041  RH  054%=      5-min Rain = 0
KCES 140130Z 02002KT 04/M04 A2988 RMK A01 T00381039  RH  057%=      5-min Rain = 0
KCES 140135Z 02002KT 04/M04 A2989 RMK A01 T00371039  RH  058%=      5-min Rain = 0
KCES 140140Z 35001KT 04/M04 A2989 RMK A01 T00351040  RH  058%=      5-min Rain = 0
KCES 140145Z 35002KT 03/M04 A2989 RMK A01 T00311041  RH  059%=      5-min Rain = 0
KCES 140150Z 01004KT 03/M04 A299 RMK A01 T00281041  RH  060%=      5-min Rain = 0
KCES 140155Z 00004KT 03/M04 A299 RMK A01 T00321037  RH  061%=      5-min Rain = 0
KCES 140200Z 34004KT 04/M04 A299 RMK A01 T00351039  RH  059%=      5-min Rain = 0
KCES 140205Z 35004KT 04/M04 A299 RMK A01 T00351037  RH  060%=      5-min Rain = 0
KCES 140210Z 00005KT 04/M04 A299 RMK A01 T00401035  RH  058%=      5-min Rain = 0
KCES 140215Z 01005KT 04/M04 A299 RMK A01 T00431036  RH  057%=      5-min Rain = 0
KCES 140220Z 01004KT 04/M04 A2991 RMK A01 T00421036  RH  057%=      5-min Rain = 0
KCES 140225Z 00004KT 04/M04 A2991 RMK A01 T00411038  RH  057%=      5-min Rain = 0
KCES 140230Z 36004KT 03/M04 A2991 RMK A01 T00341039  RH  059%=      5-min Rain = 0
KCES 140235Z 01004KT 03/M04 A299 RMK A01 T00311037  RH  061%=      5-min Rain = 0
KCES 140240Z 01004KT 03/M04 A299 RMK A01 T00341036  RH  060%=      5-min Rain = 0
KCES 140245Z 00003KT 04/M04 A2991 RMK A01 T00351037  RH  060%=      5-min Rain = 0
KCES 140250Z 36003KT 03/M04 A2991 RMK A01 T00331037  RH  060%=      5-min Rain = 0
KCES 140255Z 34002KT 03/M04 A299 RMK A01 T00301038  RH  061%=      5-min Rain = 0
KCES 140300Z 34003KT 03/M04 A299 RMK A01 T00291036  RH  063%=      5-min Rain = 0
KCES 140305Z 35003KT 03/M04 A2991 RMK A01 T00311035  RH  062%=      5-min Rain = 0
KCES 140310Z 35003KT 03/M03 A2992 RMK A01 T00331034  RH  062%=      5-min Rain = 0
KCES 140315Z 35003KT 04/M03 A2992 RMK A01 T00371034  RH  060%=      5-min Rain = 0
KCES 140320Z 34002KT 04/M04 A2992 RMK A01 T00361036  RH  060%=      5-min Rain = 0
KCES 140325Z 33002KT 03/M04 A2993 RMK A01 T00331035  RH  061%=      5-min Rain = 0
KCES 140330Z 34003KT 03/M03 A2993 RMK A01 T00341034  RH  061%=      5-min Rain = 0
KCES 140335Z 35003KT 04/M03 A2993 RMK A01 T00411031  RH  060%=      5-min Rain = 0
KCES 140340Z 35003KT 04/M04 A2993 RMK A01 T00391035  RH  058%=      5-min Rain = 0
KCES 140345Z 34002KT 03/M03 A2993 RMK A01 T00331034  RH  061%=      5-min Rain = 0
KCES 140350Z 33002KT 03/M03 A2993 RMK A01 T00331032  RH  063%=      5-min Rain = 0
KCES 140355Z 32003KT 04/M03 A2994 RMK A01 T00351031  RH  062%=      5-min Rain = 0
KCES 140400Z 32003KT 04/M03 A2994 RMK A01 T00391030  RH  061%=      5-min Rain = 0
KCES 140405Z 34002KT 04/M03 A2994 RMK A01 T00421030  RH  060%=      5-min Rain = 0
KCES 140410Z 33002KT 05/M03 A2994 RMK A01 T00451029  RH  059%=      5-min Rain = 0
KCES 140415Z 31001KT 04/M03 A2994 RMK A01 T00431030  RH  059%=      5-min Rain = 0
KCES 140420Z 31001KT 04/M03 A2994 RMK A01 T00421030  RH  060%=      5-min Rain = 0
KCES 140425Z 35002KT 04/M03 A2994 RMK A01 T00441030  RH  059%=      5-min Rain = 0
KCES 140430Z 36003KT 05/M03 A2994 RMK A01 T00451026  RH  060%=      5-min Rain = 0
KCES 140435Z 35004KT 04/M03 A2994 RMK A01 T00431026  RH  061%=      5-min Rain = 0
KCES 140440Z 35005KT 04/M03 A2994 RMK A01 T00401025  RH  063%=      5-min Rain = 0
KCES 140445Z 36005KT 04/M03 A2994 RMK A01 T00411026  RH  063%=      5-min Rain = 0
KCES 140450Z 00005KT 04/M02 A2994 RMK A01 T00411023  RH  064%=      5-min Rain = 0
KCES 140455Z 01005KT 04/M02 A2994 RMK A01 T00391022  RH  065%=      5-min Rain = 0
KCES 140500Z 01006KT 04/M02 A2994 RMK A01 T00371022  RH  066%=      5-min Rain = 0
KCES 140505Z 01008KT 03/M02 A2995 RMK A01 T00341020  RH  068%=      5-min Rain = 0
KCES 140510Z 02008KT 05/M02 A2995 RMK A01 T00461021  RH  063%=      5-min Rain = 0
KCES 140515Z 02007KT 05/M02 A2996 RMK A01 T00521020  RH  060%=      5-min Rain = 0
KCES 140520Z 02006KT 05/M02 A2995 RMK A01 T00531021  RH  060%=      5-min Rain = 0
KCES 140525Z 02006KT 05/M02 A2995 RMK A01 T00521022  RH  059%=      5-min Rain = 0
KCES 140530Z 02006KT 05/M02 A2995 RMK A01 T00481023  RH  060%=      5-min Rain = 0
KCES 140535Z 02005KT 05/M02 A2995 RMK A01 T00451023  RH  062%=      5-min Rain = 0
KCES 140540Z 02006KT 05/M02 A2995 RMK A01 T00461024  RH  061%=      5-min Rain = 0
KCES 140545Z 03006KT 05/M02 A2995 RMK A01 T00471024  RH  060%=      5-min Rain = 0
KCES 140550Z 03006KT 05/M02 A2995 RMK A01 T00491023  RH  060%=      5-min Rain = 0
KCES 140555Z 03004KT 05/M02 A2995 RMK A01 T00491023  RH  060%=      5-min Rain = 0

Page generated in 0.0216 seconds.